Time;durP1;ratioP1;P1;durP2;ratioP2;P2;SDS_P1;SDS_P2;PMS_P1;PMS_P2;Temp;Humidity;BMP_temperature;BMP_pressure;BME280_temperature;BME280_humidity;BME280_pressure;Samples;Min_cycle;Max_cycle;Signal;HPM_P1;HPM_P2
2023/06/18 00:01:11;;;;;;;7.10;5.10;;;;;;;;;;5021799;28;20021;-58
2023/06/18 00:03:36;;;;;;;8.65;5.00;;;;;;;;;;5021382;28;20032;-54
2023/06/18 00:06:01;;;;;;;8.52;4.78;;;;;;;;;;5021343;28;20130;-54
2023/06/18 00:08:26;;;;;;;7.22;5.15;;;;;;;;;;5021251;28;20479;-58
2023/06/18 00:10:52;;;;;;;8.43;5.00;;;;;;;;;;5022371;28;20025;-58
2023/06/18 00:13:18;;;;;;;10.68;5.47;;;;;;;;;;5020928;28;20037;-56
2023/06/18 00:15:43;;;;;;;7.18;4.97;;;;;;;;;;5021381;28;20951;-56
2023/06/18 00:18:08;;;;;;;7.13;5.30;;;;;;;;;;5021214;28;20122;-58
2023/06/18 00:20:33;;;;;;;7.72;5.30;;;;;;;;;;5023250;28;20856;-59
2023/06/18 00:22:59;;;;;;;6.47;4.95;;;;;;;;;;5021397;28;20026;-57
2023/06/18 00:25:25;;;;;;;9.07;5.45;;;;;;;;;;5021951;28;20037;-59
2023/06/18 00:27:50;;;;;;;8.40;5.75;;;;;;;;;;5020587;28;20028;-56
2023/06/18 00:30:15;;;;;;;11.43;6.10;;;;;;;;;;5021455;28;20467;-57
2023/06/18 00:32:43;;;;;;;7.72;5.45;;;;;;;;;;5021048;28;20034;-59
2023/06/18 00:35:10;;;;;;;7.88;5.15;;;;;;;;;;5027394;28;20064;-57
2023/06/18 00:37:35;;;;;;;9.48;5.88;;;;;;;;;;5020846;28;20017;-59
2023/06/18 00:40:01;;;;;;;7.65;5.50;;;;;;;;;;5020446;28;20033;-58
2023/06/18 00:42:28;;;;;;;10.02;5.22;;;;;;;;;;5025418;28;20054;-58
2023/06/18 00:44:54;;;;;;;14.00;6.97;;;;;;;;;;5021271;28;20028;-53
2023/06/18 00:47:19;;;;;;;8.52;5.88;;;;;;;;;;5021412;28;20029;-58
2023/06/18 00:49:45;;;;;;;8.60;5.75;;;;;;;;;;5022386;28;20380;-58
2023/06/18 00:52:14;;;;;;;9.02;6.25;;;;;;;;;;5020212;28;20070;-56
2023/06/18 00:54:44;;;;;;;9.30;6.60;;;;;;;;;;5023737;28;20048;-56
2023/06/18 00:57:13;;;;;;;11.93;6.50;;;;;;;;;;5020378;28;20029;-58
2023/06/18 00:59:42;;;;;;;11.18;6.43;;;;;;;;;;5021510;28;20025;-54
2023/06/18 01:02:07;;;;;;;8.30;6.43;;;;;;;;;;5020441;28;20024;-55
2023/06/18 01:04:33;;;;;;;8.73;6.57;;;;;;;;;;5021145;28;20040;-53
2023/06/18 01:06:59;;;;;;;9.93;6.35;;;;;;;;;;5020723;28;20038;-56
2023/06/18 01:09:25;;;;;;;9.45;6.30;;;;;;;;;;5020158;28;20025;-56
2023/06/18 01:11:51;;;;;;;10.05;7.00;;;;;;;;;;5022132;28;20660;-58
2023/06/18 01:14:19;;;;;;;10.82;6.82;;;;;;;;;;5019674;28;21523;-58
2023/06/18 01:16:45;;;;;;;11.20;6.72;;;;;;;;;;5020072;28;20318;-55
2023/06/18 01:19:12;;;;;;;10.82;6.78;;;;;;;;;;5023591;28;20028;-52
2023/06/18 01:21:39;;;;;;;10.55;7.07;;;;;;;;;;5020903;28;20030;-57
2023/06/18 01:24:11;;;;;;;11.75;7.03;;;;;;;;;;5019608;28;20033;-55
2023/06/18 01:26:38;;;;;;;12.07;6.80;;;;;;;;;;5023215;28;20523;-57
2023/06/18 01:29:09;;;;;;;10.80;7.20;;;;;;;;;;5019409;28;20428;-58
2023/06/18 01:31:36;;;;;;;9.13;6.32;;;;;;;;;;5020511;28;20036;-53
2023/06/18 01:34:04;;;;;;;15.35;6.72;;;;;;;;;;5022451;28;20362;-58
2023/06/18 01:36:37;;;;;;;11.57;7.00;;;;;;;;;;5023793;28;20105;-57
2023/06/18 01:39:15;;;;;;;8.50;6.70;;;;;;;;;;5020233;28;20037;-57
2023/06/18 01:41:42;;;;;;;10.90;6.93;;;;;;;;;;5027495;28;20063;-54
2023/06/18 01:44:12;;;;;;;11.63;7.00;;;;;;;;;;5020350;28;20029;-58
2023/06/18 01:46:38;;;;;;;8.98;6.65;;;;;;;;;;5021912;28;20602;-53
2023/06/18 01:49:06;;;;;;;11.45;7.57;;;;;;;;;;5024306;28;20021;-52
2023/06/18 01:51:32;;;;;;;9.73;6.85;;;;;;;;;;5020747;28;20045;-58
2023/06/18 01:53:59;;;;;;;11.43;7.38;;;;;;;;;;5020252;28;20053;-57
2023/06/18 01:56:28;;;;;;;9.73;6.70;;;;;;;;;;5021491;28;20045;-57
2023/06/18 01:58:53;;;;;;;10.32;6.85;;;;;;;;;;5020519;28;20052;-57
2023/06/18 02:01:20;;;;;;;13.00;6.90;;;;;;;;;;5020605;28;20500;-58
2023/06/18 02:03:45;;;;;;;15.02;6.90;;;;;;;;;;5020340;28;20038;-55
2023/06/18 02:06:11;;;;;;;11.80;6.93;;;;;;;;;;5020700;28;20033;-54
2023/06/18 02:08:36;;;;;;;11.93;7.45;;;;;;;;;;5020576;28;20521;-57
2023/06/18 02:11:02;;;;;;;9.82;6.90;;;;;;;;;;5020157;28;20108;-57
2023/06/18 02:13:27;;;;;;;11.02;7.00;;;;;;;;;;5019607;28;20040;-55
2023/06/18 02:15:52;;;;;;;12.70;7.15;;;;;;;;;;5021296;28;20071;-54
2023/06/18 02:18:18;;;;;;;10.30;6.53;;;;;;;;;;5019667;28;20024;-58
2023/06/18 02:20:44;;;;;;;8.80;6.53;;;;;;;;;;5067801;28;20536;-55
2023/06/18 02:23:09;;;;;;;9.95;6.90;;;;;;;;;;5019251;28;20029;-55
2023/06/18 02:25:35;;;;;;;8.60;6.40;;;;;;;;;;5020136;28;20040;-56
2023/06/18 02:28:01;;;;;;;9.73;6.60;;;;;;;;;;5019927;28;20060;-57
2023/06/18 02:30:30;;;;;;;11.07;6.40;;;;;;;;;;5024295;28;20463;-54
2023/06/18 02:32:55;;;;;;;10.87;6.93;;;;;;;;;;5022854;28;20044;-58
2023/06/18 02:35:21;;;;;;;9.35;7.00;;;;;;;;;;5029926;28;20040;-55
2023/06/18 02:37:46;;;;;;;13.80;6.78;;;;;;;;;;5024856;28;20079;-58
2023/06/18 02:40:14;;;;;;;9.57;6.63;;;;;;;;;;5024440;28;20029;-57
2023/06/18 02:42:47;;;;;;;13.45;8.40;;;;;;;;;;5028222;28;20435;-57
2023/06/18 02:45:13;;;;;;;10.32;7.07;;;;;;;;;;5024647;28;20033;-58
2023/06/18 02:47:39;;;;;;;9.95;6.43;;;;;;;;;;5023230;28;20120;-55
2023/06/18 02:50:05;;;;;;;9.63;7.13;;;;;;;;;;5023032;28;20021;-58
2023/06/18 02:52:30;;;;;;;11.85;7.05;;;;;;;;;;5023032;28;20046;-58
2023/06/18 02:54:56;;;;;;;12.10;7.47;;;;;;;;;;5024781;28;20048;-59
2023/06/18 02:57:21;;;;;;;8.75;6.95;;;;;;;;;;5022646;28;20697;-57
2023/06/18 02:59:46;;;;;;;9.38;6.63;;;;;;;;;;5023897;28;20016;-58
2023/06/18 03:02:12;;;;;;;9.73;6.97;;;;;;;;;;5022487;28;20461;-58
2023/06/18 03:04:37;;;;;;;8.77;6.72;;;;;;;;;;5023078;28;20044;-57
2023/06/18 03:07:03;;;;;;;11.38;6.70;;;;;;;;;;5022517;28;20116;-55
2023/06/18 03:09:28;;;;;;;11.73;7.07;;;;;;;;;;5025267;28;20464;-56
2023/06/18 03:11:53;;;;;;;12.20;6.55;;;;;;;;;;5023488;28;20110;-58
2023/06/18 03:14:21;;;;;;;12.00;6.80;;;;;;;;;;5023159;28;20029;-55
2023/06/18 03:16:47;;;;;;;15.27;6.90;;;;;;;;;;5025916;28;20070;-56
2023/06/18 03:19:12;;;;;;;11.60;7.00;;;;;;;;;;5022678;28;20108;-56
2023/06/18 03:21:39;;;;;;;13.52;7.43;;;;;;;;;;5023250;28;20443;-57
2023/06/18 03:24:04;;;;;;;12.40;6.68;;;;;;;;;;5024095;28;20124;-56
2023/06/18 03:26:30;;;;;;;13.07;7.30;;;;;;;;;;5024082;28;20109;-53
2023/06/18 03:28:56;;;;;;;14.32;7.57;;;;;;;;;;5022416;28;20055;-55
2023/06/18 03:31:22;;;;;;;12.00;7.57;;;;;;;;;;5023323;28;20036;-58
2023/06/18 03:33:47;;;;;;;13.07;6.68;;;;;;;;;;5023306;28;20037;-58
2023/06/18 03:36:15;;;;;;;9.15;6.50;;;;;;;;;;5029458;28;20029;-59
2023/06/18 03:38:40;;;;;;;12.02;7.30;;;;;;;;;;5025864;28;20033;-57
2023/06/18 03:41:06;;;;;;;15.48;7.07;;;;;;;;;;5025847;28;20499;-58
2023/06/18 03:43:31;;;;;;;12.48;6.50;;;;;;;;;;5026490;28;20554;-55
2023/06/18 03:45:56;;;;;;;11.70;7.35;;;;;;;;;;5023365;28;20037;-58
2023/06/18 03:48:22;;;;;;;9.95;6.32;;;;;;;;;;5022101;28;20402;-52
2023/06/18 03:50:47;;;;;;;13.65;6.43;;;;;;;;;;5022241;28;20092;-56
2023/06/18 03:53:12;;;;;;;9.68;5.97;;;;;;;;;;5022373;28;20036;-59
2023/06/18 03:55:38;;;;;;;8.43;6.00;;;;;;;;;;5026835;28;20079;-59
2023/06/18 03:58:03;;;;;;;10.27;6.15;;;;;;;;;;5022318;28;20484;-58
2023/06/18 04:00:28;;;;;;;14.85;6.70;;;;;;;;;;5021897;28;20021;-59
2023/06/18 04:02:53;;;;;;;7.88;5.78;;;;;;;;;;5022222;28;20396;-58
2023/06/18 04:05:19;;;;;;;11.23;5.45;;;;;;;;;;5023767;28;20484;-54
2023/06/18 04:07:44;;;;;;;7.43;5.47;;;;;;;;;;5040049;28;20049;-57
2023/06/18 04:10:09;;;;;;;7.88;5.65;;;;;;;;;;5022248;28;20048;-59
2023/06/18 04:12:35;;;;;;;5.63;4.75;;;;;;;;;;5023430;28;20026;-61
2023/06/18 04:15:01;;;;;;;6.38;4.75;;;;;;;;;;5022111;28;20543;-59
2023/06/18 04:17:26;;;;;;;6.43;4.75;;;;;;;;;;5021257;28;20083;-57
2023/06/18 04:19:52;;;;;;;7.47;5.05;;;;;;;;;;5052464;28;20429;-55
2023/06/18 04:22:17;;;;;;;17.50;6.25;;;;;;;;;;5021328;28;20017;-58
2023/06/18 04:24:42;;;;;;;5.18;4.45;;;;;;;;;;5022504;28;20051;-59
2023/06/18 04:27:08;;;;;;;7.05;4.55;;;;;;;;;;5021748;28;20029;-56
2023/06/18 04:29:33;;;;;;;6.38;4.65;;;;;;;;;;5022942;28;20036;-55
2023/06/18 04:31:58;;;;;;;8.38;4.28;;;;;;;;;;5021693;28;20033;-58
2023/06/18 04:34:23;;;;;;;9.32;5.05;;;;;;;;;;5020574;28;20040;-59
2023/06/18 04:36:49;;;;;;;5.43;4.63;;;;;;;;;;5055360;28;20142;-58
2023/06/18 04:39:14;;;;;;;5.32;4.40;;;;;;;;;;5025865;28;20557;-58
2023/06/18 04:41:39;;;;;;;6.13;4.47;;;;;;;;;;5027836;28;20024;-57
2023/06/18 04:44:05;;;;;;;7.57;5.23;;;;;;;;;;5020516;28;20024;-59
2023/06/18 04:46:30;;;;;;;6.95;4.63;;;;;;;;;;5021491;28;20784;-54
2023/06/18 04:48:59;;;;;;;6.68;4.97;;;;;;;;;;5022189;28;20147;-56
2023/06/18 04:51:24;;;;;;;6.57;4.47;;;;;;;;;;5020725;28;20096;-58
2023/06/18 04:53:49;;;;;;;7.13;5.28;;;;;;;;;;5020706;28;20119;-58
2023/06/18 04:56:15;;;;;;;9.20;4.73;;;;;;;;;;5021244;28;20078;-59
2023/06/18 04:58:40;;;;;;;6.40;4.70;;;;;;;;;;5021012;28;20797;-58
2023/06/18 05:01:06;;;;;;;6.28;3.88;;;;;;;;;;5020853;28;20080;-58
2023/06/18 05:03:31;;;;;;;6.45;4.38;;;;;;;;;;5020709;28;20148;-53
2023/06/18 05:05:56;;;;;;;9.55;4.65;;;;;;;;;;5020892;28;20484;-58
2023/06/18 05:08:22;;;;;;;6.38;4.95;;;;;;;;;;5020881;28;20023;-59
2023/06/18 05:10:49;;;;;;;7.82;4.75;;;;;;;;;;5022066;28;20025;-59
2023/06/18 05:13:15;;;;;;;6.45;5.00;;;;;;;;;;5020248;28;20060;-58
2023/06/18 05:15:40;;;;;;;5.18;4.30;;;;;;;;;;5021670;28;20119;-55
2023/06/18 05:18:05;;;;;;;7.57;4.60;;;;;;;;;;5020729;28;20539;-56
2023/06/18 05:20:30;;;;;;;5.25;4.45;;;;;;;;;;5021019;28;20344;-60
2023/06/18 05:22:56;;;;;;;5.97;4.72;;;;;;;;;;5020538;28;20104;-58
2023/06/18 05:25:21;;;;;;;8.75;4.93;;;;;;;;;;5022289;28;20601;-57
2023/06/18 05:27:46;;;;;;;9.13;5.07;;;;;;;;;;5020553;28;20461;-59
2023/06/18 05:30:12;;;;;;;7.80;5.05;;;;;;;;;;5021186;28;20258;-52
2023/06/18 05:32:37;;;;;;;5.30;4.35;;;;;;;;;;5019880;28;20032;-59
2023/06/18 05:35:02;;;;;;;6.00;4.30;;;;;;;;;;5020182;28;20076;-55
2023/06/18 05:37:27;;;;;;;5.10;3.92;;;;;;;;;;5022695;28;20018;-59
2023/06/18 05:39:53;;;;;;;5.90;4.45;;;;;;;;;;5024090;28;20342;-57
2023/06/18 05:42:18;;;;;;;5.33;4.20;;;;;;;;;;5025002;28;20021;-57
2023/06/18 05:44:43;;;;;;;5.55;4.45;;;;;;;;;;5021406;28;20276;-58
2023/06/18 05:47:09;;;;;;;4.60;3.83;;;;;;;;;;5022360;28;20068;-57
2023/06/18 05:49:34;;;;;;;5.30;3.70;;;;;;;;;;5021445;28;20495;-58
2023/06/18 05:52:00;;;;;;;5.50;3.97;;;;;;;;;;5024974;28;20057;-57
2023/06/18 05:54:25;;;;;;;5.57;4.05;;;;;;;;;;5019712;28;20080;-52
2023/06/18 05:56:51;;;;;;;5.20;3.70;;;;;;;;;;5020457;28;20486;-58
2023/06/18 05:59:16;;;;;;;6.38;3.38;;;;;;;;;;5018443;28;20051;-59
2023/06/18 06:01:41;;;;;;;5.27;3.73;;;;;;;;;;5020798;28;20095;-60
2023/06/18 06:04:07;;;;;;;5.63;3.50;;;;;;;;;;5024276;28;20277;-55
2023/06/18 06:06:32;;;;;;;5.00;3.50;;;;;;;;;;5023760;28;20465;-60
2023/06/18 06:08:57;;;;;;;4.23;3.30;;;;;;;;;;5023735;28;20653;-58
2023/06/18 06:11:23;;;;;;;3.45;3.15;;;;;;;;;;5027712;28;20357;-56
2023/06/18 06:13:48;;;;;;;5.67;3.37;;;;;;;;;;5025548;28;20168;-53
2023/06/18 06:16:13;;;;;;;5.07;3.50;;;;;;;;;;5024667;28;20278;-57
2023/06/18 06:18:38;;;;;;;5.77;4.23;;;;;;;;;;5024040;28;20278;-60
2023/06/18 06:21:04;;;;;;;6.40;3.93;;;;;;;;;;5025085;28;20275;-58
2023/06/18 06:23:32;;;;;;;3.67;2.97;;;;;;;;;;5040861;28;20266;-57
2023/06/18 06:25:57;;;;;;;3.08;2.78;;;;;;;;;;5024301;28;20057;-59
2023/06/18 06:28:23;;;;;;;3.40;3.10;;;;;;;;;;5041497;28;20223;-57
2023/06/18 06:30:48;;;;;;;5.83;2.83;;;;;;;;;;5023907;28;20750;-58
2023/06/18 06:33:13;;;;;;;4.43;3.30;;;;;;;;;;5023298;28;20943;-55
2023/06/18 06:35:39;;;;;;;3.37;3.07;;;;;;;;;;5027090;28;20075;-60
2023/06/18 06:38:04;;;;;;;4.00;3.30;;;;;;;;;;5026430;28;20344;-58
2023/06/18 06:40:30;;;;;;;4.20;2.92;;;;;;;;;;5023545;28;20878;-58
2023/06/18 06:42:55;;;;;;;6.55;3.40;;;;;;;;;;5026879;28;20056;-59
2023/06/18 06:45:21;;;;;;;3.08;2.55;;;;;;;;;;5023815;28;20388;-59
2023/06/18 06:47:47;;;;;;;5.00;2.90;;;;;;;;;;5022811;28;20021;-55
2023/06/18 06:50:12;;;;;;;3.63;3.33;;;;;;;;;;5023974;28;20020;-58
2023/06/18 06:52:37;;;;;;;5.03;3.20;;;;;;;;;;5023097;28;20060;-59
2023/06/18 06:55:03;;;;;;;3.72;3.00;;;;;;;;;;5023358;28;20769;-59
2023/06/18 06:57:28;;;;;;;7.20;3.72;;;;;;;;;;5022724;28;20035;-57
2023/06/18 06:59:53;;;;;;;5.50;3.67;;;;;;;;;;5023311;28;20448;-58
2023/06/18 07:02:19;;;;;;;8.13;3.50;;;;;;;;;;5023117;28;20265;-58
2023/06/18 07:04:47;;;;;;;4.20;3.35;;;;;;;;;;5023658;28;20638;-56
2023/06/18 07:07:13;;;;;;;3.58;3.00;;;;;;;;;;5027356;28;20035;-54
2023/06/18 07:09:39;;;;;;;6.82;3.30;;;;;;;;;;5023231;28;20034;-59
2023/06/18 07:12:04;;;;;;;4.40;2.80;;;;;;;;;;5021568;28;20048;-59
2023/06/18 07:14:29;;;;;;;4.00;2.70;;;;;;;;;;5021338;28;20038;-58
2023/06/18 07:16:55;;;;;;;5.67;3.00;;;;;;;;;;5022759;28;20041;-57
2023/06/18 07:19:20;;;;;;;4.93;3.15;;;;;;;;;;5021783;28;20032;-55
2023/06/18 07:21:45;;;;;;;5.53;2.97;;;;;;;;;;5023469;28;20017;-57
2023/06/18 07:24:10;;;;;;;5.00;3.00;;;;;;;;;;5022039;28;20689;-57
2023/06/18 07:26:36;;;;;;;4.23;3.00;;;;;;;;;;5022781;28;20828;-59
2023/06/18 07:29:01;;;;;;;3.00;2.70;;;;;;;;;;5021461;28;20021;-56
2023/06/18 07:31:26;;;;;;;3.20;2.80;;;;;;;;;;5023897;28;20036;-58
2023/06/18 07:33:52;;;;;;;5.70;3.17;;;;;;;;;;5023805;28;20037;-59
2023/06/18 07:36:17;;;;;;;4.30;3.57;;;;;;;;;;5076491;28;20358;-58
2023/06/18 07:38:42;;;;;;;7.30;4.20;;;;;;;;;;5022050;28;20275;-52
2023/06/18 07:41:07;;;;;;;4.40;2.87;;;;;;;;;;5024600;28;20150;-59
2023/06/18 07:43:33;;;;;;;4.83;3.10;;;;;;;;;;5024140;28;20523;-60
2023/06/18 07:45:58;;;;;;;5.10;3.40;;;;;;;;;;5024978;28;20355;-54
2023/06/18 07:48:23;;;;;;;3.50;3.17;;;;;;;;;;5022749;28;20270;-54
2023/06/18 07:50:49;;;;;;;4.20;2.90;;;;;;;;;;5022829;28;20042;-54
2023/06/18 07:53:14;;;;;;;3.97;3.03;;;;;;;;;;5023072;28;20274;-57
2023/06/18 07:55:39;;;;;;;3.53;2.90;;;;;;;;;;5025523;28;20270;-56
2023/06/18 07:58:04;;;;;;;4.32;3.28;;;;;;;;;;5021745;28;20111;-59
2023/06/18 08:00:30;;;;;;;8.13;3.10;;;;;;;;;;5022401;28;21996;-60
2023/06/18 08:02:55;;;;;;;6.20;3.67;;;;;;;;;;5029155;28;20356;-57
2023/06/18 08:05:20;;;;;;;4.40;3.60;;;;;;;;;;5023053;28;20048;-57
2023/06/18 08:07:46;;;;;;;3.33;3.03;;;;;;;;;;5021092;28;20040;-60
2023/06/18 08:10:11;;;;;;;3.65;3.08;;;;;;;;;;5023099;28;20273;-56
2023/06/18 08:12:36;;;;;;;4.57;3.40;;;;;;;;;;5020856;28;20029;-57
2023/06/18 08:15:02;;;;;;;3.17;2.87;;;;;;;;;;5021951;28;20294;-58
2023/06/18 08:17:27;;;;;;;4.05;3.38;;;;;;;;;;5020920;28;20763;-56
2023/06/18 08:19:52;;;;;;;3.97;3.00;;;;;;;;;;5021908;28;20045;-53
2023/06/18 08:22:17;;;;;;;5.77;3.47;;;;;;;;;;5021185;28;20033;-59
2023/06/18 08:24:43;;;;;;;3.60;2.60;;;;;;;;;;5021113;28;20033;-59
2023/06/18 08:27:08;;;;;;;3.55;2.70;;;;;;;;;;5050781;28;20277;-60
2023/06/18 08:29:34;;;;;;;3.30;3.00;;;;;;;;;;5021273;28;20061;-57
2023/06/18 08:32:04;;;;;;;3.50;3.00;;;;;;;;;;5021722;28;20082;-56
2023/06/18 08:34:30;;;;;;;5.78;3.05;;;;;;;;;;5022464;28;20044;-58
2023/06/18 08:36:55;;;;;;;3.85;2.92;;;;;;;;;;5022732;28;20033;-56
2023/06/18 08:39:20;;;;;;;5.27;2.60;;;;;;;;;;5027383;28;20037;-55
2023/06/18 08:41:46;;;;;;;3.63;3.10;;;;;;;;;;5025722;28;20031;-59
2023/06/18 08:44:11;;;;;;;3.92;3.22;;;;;;;;;;5027723;28;20484;-55
2023/06/18 08:46:38;;;;;;;3.27;2.93;;;;;;;;;;5021595;28;20048;-56
2023/06/18 08:49:05;;;;;;;3.08;2.78;;;;;;;;;;5021085;28;20049;-59
2023/06/18 08:51:30;;;;;;;3.17;2.72;;;;;;;;;;5020779;28;21312;-58
2023/06/18 08:54:12;;;;;;;5.57;2.55;;;;;;;;;;5023370;28;20482;-60
2023/06/18 08:56:41;;;;;;;2.63;2.42;;;;;;;;;;5020887;28;20080;-56
2023/06/18 08:59:07;;;;;;;6.32;2.67;;;;;;;;;;5050168;28;20033;-59
2023/06/18 09:01:32;;;;;;;4.70;2.67;;;;;;;;;;5021285;28;20042;-55
2023/06/18 09:03:58;;;;;;;3.95;2.97;;;;;;;;;;5021303;28;20558;-59
2023/06/18 09:06:23;;;;;;;3.13;2.38;;;;;;;;;;5020242;28;20120;-54
2023/06/18 09:08:49;;;;;;;3.03;2.50;;;;;;;;;;5020882;28;20495;-58
2023/06/18 09:11:14;;;;;;;3.13;2.33;;;;;;;;;;5020715;28;20757;-58
2023/06/18 09:13:41;;;;;;;3.25;2.47;;;;;;;;;;5019683;28;20243;-55
2023/06/18 09:16:06;;;;;;;2.60;2.40;;;;;;;;;;5021373;28;20132;-56
2023/06/18 09:18:31;;;;;;;3.50;2.77;;;;;;;;;;5020326;28;20111;-57
2023/06/18 09:20:57;;;;;;;4.70;2.65;;;;;;;;;;5021302;28;20278;-58
2023/06/18 09:23:22;;;;;;;3.53;2.50;;;;;;;;;;5020497;28;20033;-54
2023/06/18 09:25:51;;;;;;;3.20;2.40;;;;;;;;;;5021279;28;20021;-57
2023/06/18 09:28:17;;;;;;;2.88;2.30;;;;;;;;;;5019905;28;20025;-54
2023/06/18 09:30:50;;;;;;;3.40;2.50;;;;;;;;;;5020461;28;20488;-56
2023/06/18 09:33:15;;;;;;;2.60;2.40;;;;;;;;;;5020744;28;20036;-56
2023/06/18 09:35:41;;;;;;;2.83;2.50;;;;;;;;;;5020742;28;20048;-58
2023/06/18 09:38:09;;;;;;;2.97;2.53;;;;;;;;;;5021971;28;20124;-56
2023/06/18 09:40:34;;;;;;;5.30;2.50;;;;;;;;;;5024886;28;20067;-55
2023/06/18 09:43:00;;;;;;;4.70;2.33;;;;;;;;;;5030088;28;20104;-57
2023/06/18 09:45:26;;;;;;;3.28;2.35;;;;;;;;;;5025678;28;20022;-57
2023/06/18 09:47:52;;;;;;;3.08;2.35;;;;;;;;;;5025278;28;20489;-59
2023/06/18 09:50:17;;;;;;;3.20;2.58;;;;;;;;;;5024016;28;20024;-57
2023/06/18 09:52:48;;;;;;;2.70;2.20;;;;;;;;;;5025178;28;20029;-55
2023/06/18 09:55:27;;;;;;;2.83;2.30;;;;;;;;;;5028304;28;20044;-58
2023/06/18 09:57:52;;;;;;;3.63;2.47;;;;;;;;;;5023946;28;21786;-57
2023/06/18 10:00:18;;;;;;;6.78;2.97;;;;;;;;;;5023962;28;20497;-59
2023/06/18 10:02:43;;;;;;;6.53;2.65;;;;;;;;;;5024450;28;20120;-53
2023/06/18 10:05:08;;;;;;;2.67;2.47;;;;;;;;;;5024009;28;20628;-57
2023/06/18 10:07:34;;;;;;;2.87;2.23;;;;;;;;;;5024949;28;20056;-58
2023/06/18 10:10:00;;;;;;;2.55;2.35;;;;;;;;;;5023629;28;20032;-56
2023/06/18 10:12:26;;;;;;;2.78;2.28;;;;;;;;;;5023588;28;20060;-59
2023/06/18 10:14:53;;;;;;;2.40;2.10;;;;;;;;;;5023690;28;20500;-56
2023/06/18 10:17:25;;;;;;;2.20;1.90;;;;;;;;;;5024032;28;20113;-56
2023/06/18 10:20:00;;;;;;;4.70;2.35;;;;;;;;;;5023939;28;20360;-56
2023/06/18 10:22:27;;;;;;;4.88;2.38;;;;;;;;;;5024057;28;20025;-58
2023/06/18 10:24:53;;;;;;;4.50;2.55;;;;;;;;;;5024076;28;20025;-55
2023/06/18 10:27:18;;;;;;;2.70;2.40;;;;;;;;;;5025606;28;20029;-58
2023/06/18 10:29:43;;;;;;;2.57;2.37;;;;;;;;;;5024314;28;20423;-55
2023/06/18 10:32:10;;;;;;;5.87;2.77;;;;;;;;;;5022932;28;20633;-54
2023/06/18 10:34:37;;;;;;;2.60;2.20;;;;;;;;;;5024013;28;20271;-59
2023/06/18 10:37:03;;;;;;;3.97;2.40;;;;;;;;;;5023038;28;20531;-55
2023/06/18 10:39:28;;;;;;;5.25;2.70;;;;;;;;;;5021993;28;20034;-56
2023/06/18 10:41:54;;;;;;;3.95;2.58;;;;;;;;;;5027013;28;20469;-55
2023/06/18 10:44:33;;;;;;;3.00;2.40;;;;;;;;;;5024859;28;20048;-58
2023/06/18 10:47:20;;;;;;;2.72;2.10;;;;;;;;;;5023485;28;20036;-58
2023/06/18 10:50:07;;;;;;;2.88;2.35;;;;;;;;;;5024414;28;20052;-57
2023/06/18 10:52:36;;;;;;;6.28;2.20;;;;;;;;;;5023278;28;20044;-57
2023/06/18 10:55:15;;;;;;;3.53;2.50;;;;;;;;;;5023855;28;20163;-55
2023/06/18 10:57:42;;;;;;;2.42;2.22;;;;;;;;;;5023055;28;20043;-59
2023/06/18 11:00:19;;;;;;;2.40;2.20;;;;;;;;;;5022745;28;20152;-59
2023/06/18 11:02:46;;;;;;;2.60;2.22;;;;;;;;;;5022455;28;20052;-55
2023/06/18 11:05:16;;;;;;;3.03;2.65;;;;;;;;;;5022995;28;20099;-53
2023/06/18 11:07:41;;;;;;;3.03;2.03;;;;;;;;;;5022279;28;20041;-58
2023/06/18 11:10:07;;;;;;;3.08;2.20;;;;;;;;;;5027811;28;20033;-58
2023/06/18 11:12:37;;;;;;;4.38;2.63;;;;;;;;;;5023585;28;20037;-55
2023/06/18 11:15:16;;;;;;;3.03;2.50;;;;;;;;;;5022295;28;20069;-57
2023/06/18 11:17:48;;;;;;;5.07;2.40;;;;;;;;;;5024541;28;20032;-56
2023/06/18 11:20:13;;;;;;;2.80;2.45;;;;;;;;;;5024428;28;20036;-54
2023/06/18 11:22:40;;;;;;;2.45;2.25;;;;;;;;;;5026680;28;20033;-58
2023/06/18 11:25:06;;;;;;;4.07;2.50;;;;;;;;;;5024121;28;20337;-56
2023/06/18 11:27:32;;;;;;;3.38;2.60;;;;;;;;;;5022749;28;20035;-58
2023/06/18 11:29:57;;;;;;;5.00;2.63;;;;;;;;;;5023419;28;20025;-58
2023/06/18 11:32:23;;;;;;;3.13;2.30;;;;;;;;;;5022177;28;20029;-60
2023/06/18 11:34:49;;;;;;;3.47;2.75;;;;;;;;;;5022466;28;20033;-56
2023/06/18 11:37:15;;;;;;;6.15;2.35;;;;;;;;;;5022532;28;20044;-59
2023/06/18 11:39:41;;;;;;;3.00;2.28;;;;;;;;;;5029181;28;20465;-55
2023/06/18 11:42:18;;;;;;;3.45;2.30;;;;;;;;;;5026968;28;20029;-58
2023/06/18 11:44:57;;;;;;;3.05;2.75;;;;;;;;;;5023717;28;20691;-57
2023/06/18 11:47:23;;;;;;;2.90;2.60;;;;;;;;;;5022808;28;20022;-58
2023/06/18 11:49:49;;;;;;;4.57;2.70;;;;;;;;;;5023044;28;20036;-57
2023/06/18 11:52:22;;;;;;;3.05;2.70;;;;;;;;;;5026636;28;20309;-60
2023/06/18 11:54:48;;;;;;;3.00;2.70;;;;;;;;;;5022677;28;20081;-54
2023/06/18 11:57:14;;;;;;;5.13;2.70;;;;;;;;;;5021976;28;20107;-54
2023/06/18 11:59:39;;;;;;;3.78;2.60;;;;;;;;;;5026728;28;20032;-54
2023/06/18 12:02:12;;;;;;;3.03;2.72;;;;;;;;;;5021358;28;20056;-59
2023/06/18 12:04:38;;;;;;;4.55;2.45;;;;;;;;;;5026764;28;20072;-54
2023/06/18 12:07:03;;;;;;;6.05;2.72;;;;;;;;;;5023787;28;20164;-60
2023/06/18 12:09:35;;;;;;;3.80;2.67;;;;;;;;;;5022128;28;20056;-58
2023/06/18 12:12:03;;;;;;;4.00;2.95;;;;;;;;;;5021565;28;20033;-58
2023/06/18 12:14:38;;;;;;;3.25;2.65;;;;;;;;;;5021399;28;20566;-55
2023/06/18 12:17:06;;;;;;;5.20;2.88;;;;;;;;;;5021976;28;20025;-54
2023/06/18 12:19:32;;;;;;;;;;;;;;;;;;5023138;28;20111;-54
2023/06/18 12:21:59;;;;;;;3.70;2.53;;;;;;;;;;5022484;28;19913;-56
2023/06/18 12:24:28;;;;;;;4.45;3.03;;;;;;;;;;5021591;28;20843;-58
2023/06/18 12:26:53;;;;;;;3.42;3.10;;;;;;;;;;5023730;28;20057;-54
2023/06/18 12:29:19;;;;;;;3.17;2.88;;;;;;;;;;5021258;28;20127;-56
2023/06/18 12:31:59;;;;;;;3.38;2.85;;;;;;;;;;5021750;28;20029;-54
2023/06/18 12:34:25;;;;;;;4.32;3.08;;;;;;;;;;5021807;28;20033;-59
2023/06/18 12:36:53;;;;;;;3.60;3.03;;;;;;;;;;5027020;28;20049;-59
2023/06/18 12:39:18;;;;;;;5.43;3.20;;;;;;;;;;5028059;28;20108;-56
2023/06/18 12:41:44;;;;;;;4.03;3.00;;;;;;;;;;5027335;28;20866;-56
2023/06/18 12:44:09;;;;;;;4.28;3.20;;;;;;;;;;5038246;28;20104;-59
2023/06/18 12:46:35;;;;;;;14.57;3.97;;;;;;;;;;5024453;28;20029;-57
2023/06/18 12:49:02;;;;;;;4.43;3.20;;;;;;;;;;5022639;28;20507;-56
2023/06/18 12:51:43;;;;;;;4.57;3.30;;;;;;;;;;5022274;28;20043;-59
2023/06/18 12:54:15;;;;;;;4.55;3.47;;;;;;;;;;5020577;28;20052;-57
2023/06/18 12:56:54;;;;;;;4.35;3.38;;;;;;;;;;5020354;28;20033;-55
2023/06/18 12:59:20;;;;;;;5.17;3.90;;;;;;;;;;5020413;28;20091;-56
2023/06/18 13:01:45;;;;;;;5.97;3.78;;;;;;;;;;5036303;28;20278;-53
2023/06/18 13:04:11;;;;;;;3.47;3.13;;;;;;;;;;5021401;28;21064;-58
2023/06/18 13:06:36;;;;;;;5.78;3.60;;;;;;;;;;5021481;28;20376;-57
2023/06/18 13:09:04;;;;;;;4.83;3.73;;;;;;;;;;5024336;28;20029;-59
2023/06/18 13:11:29;;;;;;;8.07;3.72;;;;;;;;;;5021448;28;20024;-57
2023/06/18 13:13:54;;;;;;;5.20;3.60;;;;;;;;;;5020730;28;20037;-58
2023/06/18 13:16:20;;;;;;;5.20;3.83;;;;;;;;;;5026034;28;20184;-51
2023/06/18 13:18:45;;;;;;;6.07;3.60;;;;;;;;;;5020296;28;20270;-55
2023/06/18 13:21:10;;;;;;;5.67;3.73;;;;;;;;;;5022012;28;20266;-57
2023/06/18 13:23:36;;;;;;;6.43;3.87;;;;;;;;;;5020876;28;20270;-59
2023/06/18 13:26:01;;;;;;;5.77;3.50;;;;;;;;;;5021605;28;20938;-59
2023/06/18 13:28:27;;;;;;;5.35;3.58;;;;;;;;;;5021839;28;20021;-58
2023/06/18 13:30:52;;;;;;;4.47;3.67;;;;;;;;;;5020973;28;20030;-57
2023/06/18 13:33:18;;;;;;;5.93;3.80;;;;;;;;;;5020385;28;20029;-58
2023/06/18 13:35:43;;;;;;;6.30;3.78;;;;;;;;;;5020996;28;20120;-55
2023/06/18 13:38:09;;;;;;;5.90;4.03;;;;;;;;;;5026871;28;20021;-59
2023/06/18 13:40:34;;;;;;;3.63;3.15;;;;;;;;;;5020390;28;20037;-57
2023/06/18 13:43:00;;;;;;;5.05;3.75;;;;;;;;;;5025202;28;20139;-55
2023/06/18 13:45:25;;;;;;;4.32;3.53;;;;;;;;;;5021121;28;20028;-54
2023/06/18 13:47:51;;;;;;;5.47;4.13;;;;;;;;;;5021244;28;20390;-59
2023/06/18 13:50:16;;;;;;;4.70;3.83;;;;;;;;;;5022213;28;20033;-54
2023/06/18 13:52:41;;;;;;;5.93;3.57;;;;;;;;;;5023980;28;22682;-57
2023/06/18 13:55:07;;;;;;;5.30;4.00;;;;;;;;;;5020184;28;20298;-55
2023/06/18 13:57:32;;;;;;;5.15;3.83;;;;;;;;;;5019719;28;20108;-59
2023/06/18 13:59:57;;;;;;;4.33;3.50;;;;;;;;;;5024911;28;20029;-58
2023/06/18 14:02:22;;;;;;;4.03;3.60;;;;;;;;;;5020773;28;20266;-55
2023/06/18 14:04:49;;;;;;;5.70;4.23;;;;;;;;;;5021752;28;20285;-58
2023/06/18 14:07:14;;;;;;;4.05;3.53;;;;;;;;;;5023476;28;20301;-54
2023/06/18 14:09:40;;;;;;;5.50;3.73;;;;;;;;;;5020881;28;20120;-55
2023/06/18 14:12:06;;;;;;;5.32;3.97;;;;;;;;;;5020301;28;20029;-59
2023/06/18 14:14:33;;;;;;;5.63;3.92;;;;;;;;;;5038963;28;20044;-57
2023/06/18 14:16:58;;;;;;;9.35;3.90;;;;;;;;;;5024308;28;20367;-55
2023/06/18 14:19:25;;;;;;;6.05;4.00;;;;;;;;;;5020236;28;20028;-57
2023/06/18 14:21:50;;;;;;;6.03;3.60;;;;;;;;;;5022442;28;20665;-55
2023/06/18 14:24:16;;;;;;;6.05;3.88;;;;;;;;;;5022866;28;20033;-56
2023/06/18 14:26:41;;;;;;;7.53;3.60;;;;;;;;;;5023715;28;20059;-54
2023/06/18 14:29:07;;;;;;;5.80;3.90;;;;;;;;;;5024580;28;20091;-57
2023/06/18 14:31:32;;;;;;;7.90;4.05;;;;;;;;;;5025515;28;20052;-56
2023/06/18 14:33:58;;;;;;;6.05;3.80;;;;;;;;;;5025942;28;20037;-60
2023/06/18 14:36:23;;;;;;;4.57;3.83;;;;;;;;;;5030640;28;20024;-59